createdAt,value
2023-01-17T00:04:09.357Z,6.22
2023-01-17T00:09:33.872Z,4.00
2023-01-17T00:14:37.740Z,5.68
2023-01-17T00:20:01.867Z,3.35
2023-01-17T00:25:26.397Z,3.90
2023-01-17T00:30:29.249Z,4.85
2023-01-17T00:35:33.151Z,5.90
2023-01-17T00:40:40.737Z,4.25
2023-01-17T00:46:03.033Z,4.88
2023-01-17T00:51:24.986Z,4.88
2023-01-17T00:56:47.594Z,5.30
2023-01-17T01:02:09.021Z,4.43
2023-01-17T01:07:30.145Z,5.05
2023-01-17T01:12:52.771Z,4.40
2023-01-17T01:18:14.102Z,5.78
2023-01-17T01:23:36.968Z,5.90
2023-01-17T01:28:59.527Z,6.65
2023-01-17T01:34:03.619Z,5.35
2023-01-17T01:39:08.364Z,6.38
2023-01-17T01:44:49.440Z,6.82
2023-01-17T01:49:53.381Z,4.25
2023-01-17T01:55:02.754Z,6.82
2023-01-17T02:00:20.020Z,5.50
2023-01-17T02:05:26.876Z,4.78
2023-01-17T02:10:33.275Z,4.57
2023-01-17T02:15:50.005Z,4.80
2023-01-17T02:21:20.597Z,5.85
2023-01-17T02:26:54.865Z,5.38
2023-01-17T02:32:07.685Z,5.13
2023-01-17T02:37:19.523Z,4.32
2023-01-17T02:42:30.870Z,4.43
2023-01-17T02:47:36.257Z,4.65
2023-01-17T02:53:02.725Z,5.30
2023-01-17T02:58:33.528Z,4.32
2023-01-17T03:03:51.183Z,4.38
2023-01-17T03:13:59.282Z,4.85
2023-01-17T03:19:04.372Z,5.82
2023-01-17T03:24:08.821Z,6.15
2023-01-17T03:29:12.741Z,3.95
2023-01-17T03:34:17.676Z,6.05
2023-01-17T03:39:21.309Z,3.67
2023-01-17T03:44:24.898Z,2.92
2023-01-17T03:49:29.855Z,4.38
2023-01-17T03:54:33.504Z,3.95
2023-01-17T03:59:37.133Z,5.45
2023-01-17T04:04:42.163Z,3.55
2023-01-17T04:09:45.863Z,3.92
2023-01-17T04:14:49.519Z,2.83
2023-01-17T04:19:55.266Z,3.30
2023-01-17T04:24:59.337Z,3.47
2023-01-17T04:30:02.921Z,4.03
2023-01-17T04:35:09.469Z,3.78
2023-01-17T04:40:14.894Z,3.55
2023-01-17T04:45:18.949Z,3.53
2023-01-17T04:50:23.886Z,2.85
2023-01-17T04:55:27.727Z,4.45
2023-01-17T05:00:31.313Z,4.00
2023-01-17T05:05:36.231Z,3.95
2023-01-17T05:10:39.899Z,3.05
2023-01-17T05:15:43.717Z,3.03
2023-01-17T05:20:48.870Z,3.50
2023-01-17T05:25:56.684Z,2.67
2023-01-17T05:36:06.183Z,4.07
2023-01-17T05:41:09.960Z,1.95
2023-01-17T05:46:13.727Z,4.10
2023-01-17T05:51:18.676Z,4.25
2023-01-17T05:56:22.410Z,4.00
2023-01-17T06:01:26.071Z,3.28
2023-01-17T06:06:30.928Z,3.08
2023-01-17T06:11:34.416Z,5.18
2023-01-17T06:16:37.968Z,3.55
2023-01-17T06:21:42.889Z,2.08
2023-01-17T06:26:46.687Z,2.17
2023-01-17T06:31:50.522Z,3.17
2023-01-17T06:36:55.411Z,3.38
2023-01-17T06:41:59.097Z,4.95
2023-01-17T06:47:02.605Z,3.90
2023-01-17T06:52:07.687Z,2.13
2023-01-17T06:57:11.220Z,2.08
2023-01-17T07:02:14.743Z,4.65
2023-01-17T07:07:19.677Z,3.15
2023-01-17T07:12:23.209Z,2.22
2023-01-17T07:17:26.927Z,2.55
2023-01-17T07:22:32.123Z,3.10
2023-01-17T07:27:35.809Z,4.28
2023-01-17T07:32:40.735Z,5.10
2023-01-17T07:37:50.646Z,2.60
2023-01-17T07:42:54.539Z,2.55
2023-01-17T07:47:59.151Z,2.90
2023-01-17T07:53:05.485Z,2.75
2023-01-17T07:58:11.228Z,4.15
2023-01-17T08:03:18.617Z,2.22
2023-01-17T08:08:26.061Z,4.60
2023-01-17T08:13:30.016Z,3.25
2023-01-17T08:18:33.623Z,2.28
2023-01-17T08:23:47.294Z,3.17
2023-01-17T08:28:57.859Z,3.75
2023-01-17T08:34:01.677Z,2.70
2023-01-17T08:39:06.775Z,2.42
2023-01-17T08:44:10.309Z,2.38
2023-01-17T08:49:14.254Z,2.90
2023-01-17T08:54:22.346Z,2.83
2023-01-17T08:59:25.936Z,2.30
2023-01-17T09:04:29.762Z,1.70
2023-01-17T09:09:34.654Z,2.13
2023-01-17T09:14:38.346Z,3.03
2023-01-17T09:19:46.567Z,2.45
2023-01-17T09:24:51.495Z,3.67
2023-01-17T09:29:54.999Z,2.75
2023-01-17T09:35:00.757Z,1.88
2023-01-17T09:40:08.697Z,2.67
2023-01-17T09:50:31.688Z,8.43
2023-01-17T09:55:44.904Z,9.32
2023-01-17T10:01:08.244Z,14.05
2023-01-17T10:06:41.453Z,9.35
2023-01-17T10:12:08.559Z,7.00
2023-01-17T10:17:23.549Z,9.13
2023-01-17T10:23:09.232Z,5.50
2023-01-17T10:28:19.837Z,7.43
2023-01-17T10:33:29.912Z,11.85
2023-01-17T10:38:37.507Z,7.55
2023-01-17T10:43:56.831Z,12.00
2023-01-17T10:49:01.750Z,8.98
2023-01-17T10:54:21.104Z,9.93
2023-01-17T10:59:32.282Z,5.68
2023-01-17T11:04:39.381Z,4.45
2023-01-17T11:09:45.770Z,7.57
2023-01-17T11:15:07.009Z,8.70
2023-01-17T11:20:21.048Z,5.22
2023-01-17T11:25:26.202Z,4.72
2023-01-17T11:30:31.381Z,4.88
2023-01-17T11:35:37.581Z,3.85
2023-01-17T11:40:43.348Z,5.43
2023-01-17T11:46:03.686Z,5.25
2023-01-17T11:51:25.639Z,5.25
2023-01-17T11:56:34.112Z,6.90
2023-01-17T12:01:47.574Z,5.72
2023-01-17T12:07:14.934Z,5.70
2023-01-17T12:12:46.352Z,8.48
2023-01-17T12:18:25.137Z,6.55
2023-01-17T12:23:52.436Z,7.90
2023-01-17T12:29:41.566Z,18.63
2023-01-17T12:34:54.259Z,13.95
2023-01-17T12:40:04.869Z,17.85
2023-01-17T12:45:14.986Z,17.88
2023-01-17T12:50:34.120Z,11.20
2023-01-17T12:55:48.489Z,10.98
2023-01-17T13:01:02.983Z,14.75
2023-01-17T13:06:09.530Z,13.73
2023-01-17T13:11:21.583Z,16.65
2023-01-17T13:16:34.095Z,16.35
2023-01-17T13:21:39.409Z,16.65
2023-01-17T13:27:08.218Z,17.50
2023-01-17T13:32:33.552Z,12.13
2023-01-17T13:38:09.194Z,12.85
2023-01-17T13:43:18.774Z,10.88
2023-01-17T13:48:32.768Z,13.02
2023-01-17T13:53:59.536Z,8.05
2023-01-17T13:59:29.202Z,12.27
2023-01-17T14:10:41.371Z,10.60
2023-01-17T14:15:51.394Z,8.82
2023-01-17T14:21:12.584Z,7.90
2023-01-17T14:26:44.657Z,8.50
2023-01-17T14:31:49.315Z,6.82
2023-01-17T14:36:52.927Z,7.03
2023-01-17T14:41:58.386Z,9.02
2023-01-17T14:47:02.293Z,8.52
2023-01-17T14:52:07.614Z,7.03
2023-01-17T14:57:29.212Z,6.50
2023-01-17T15:02:33.422Z,8.07
2023-01-17T15:07:38.605Z,8.23
2023-01-17T15:12:46.983Z,6.72
2023-01-17T15:17:53.701Z,5.57
2023-01-17T15:22:57.388Z,6.13
2023-01-17T15:28:04.625Z,4.93
2023-01-17T15:33:16.302Z,5.17
2023-01-17T15:38:19.784Z,5.35
2023-01-17T15:43:35.861Z,5.43
2023-01-17T15:48:43.334Z,6.50
2023-01-17T15:53:47.020Z,6.33
2023-01-17T15:58:51.971Z,5.13
2023-01-17T16:03:56.810Z,6.68
2023-01-17T16:09:00.425Z,5.38
2023-01-17T16:14:07.931Z,6.00
2023-01-17T16:19:11.450Z,5.35
2023-01-17T16:24:16.756Z,5.25
2023-01-17T16:29:21.677Z,5.18
2023-01-17T16:34:25.273Z,5.40
2023-01-17T16:39:29.307Z,4.55
2023-01-17T16:44:34.612Z,5.85
2023-01-17T16:49:38.479Z,3.88
2023-01-17T16:54:42.145Z,4.53
2023-01-17T16:59:50.791Z,5.07
2023-01-17T17:04:54.847Z,3.55
2023-01-17T17:09:58.761Z,5.38
2023-01-17T17:15:03.848Z,4.28
2023-01-17T17:20:11.076Z,4.15
2023-01-17T17:25:15.953Z,4.27
2023-01-17T17:30:21.194Z,3.92
2023-01-17T17:35:24.864Z,4.25
2023-01-17T17:40:28.416Z,4.47
2023-01-17T17:45:33.281Z,4.38
2023-01-17T17:50:36.919Z,4.38
2023-01-17T17:55:40.984Z,3.63
2023-01-17T18:00:46.133Z,4.93
2023-01-17T18:05:49.652Z,3.22
2023-01-17T18:10:59.957Z,4.18
2023-01-17T18:16:09.695Z,3.38
2023-01-17T18:21:16.714Z,3.38
2023-01-17T18:26:23.898Z,5.15
2023-01-17T18:31:31.115Z,2.58
2023-01-17T18:36:35.826Z,3.30
2023-01-17T18:41:39.673Z,2.90
2023-01-17T18:46:44.728Z,2.45
2023-01-17T18:51:51.255Z,3.33
2023-01-17T18:56:56.610Z,3.33
2023-01-17T19:02:01.748Z,2.67
2023-01-17T19:07:05.364Z,2.53
2023-01-17T19:12:09.293Z,3.38
2023-01-17T19:17:14.238Z,2.38
2023-01-17T19:22:18.020Z,2.03
2023-01-17T19:27:21.672Z,3.05
2023-01-17T19:32:26.667Z,3.28
2023-01-17T19:37:30.377Z,2.50
2023-01-17T19:42:34.007Z,3.65
2023-01-17T19:47:40.069Z,2.67
2023-01-17T19:52:43.607Z,2.75
2023-01-17T19:57:47.346Z,3.20
2023-01-17T20:02:52.342Z,2.88
2023-01-17T20:07:56.091Z,3.28
2023-01-17T20:12:59.760Z,2.65
2023-01-17T20:18:05.851Z,3.00
2023-01-17T20:23:12.217Z,2.63
2023-01-17T20:28:15.769Z,3.15
2023-01-17T20:33:20.692Z,2.90
2023-01-17T20:38:27.530Z,3.72
2023-01-17T20:43:32.270Z,1.92
2023-01-17T20:48:39.133Z,3.17
2023-01-17T20:53:45.744Z,2.95
2023-01-17T20:58:51.573Z,3.92
2023-01-17T21:03:56.787Z,3.00
2023-01-17T21:09:01.042Z,3.50
2023-01-17T21:14:05.939Z,4.15
2023-01-17T21:19:12.109Z,4.18
2023-01-17T21:24:18.753Z,4.25
2023-01-17T21:29:28.633Z,3.35
2023-01-17T21:34:34.643Z,4.82
2023-01-17T21:39:39.714Z,9.60
2023-01-17T21:44:45.316Z,7.40
2023-01-17T21:49:50.319Z,11.13
2023-01-17T21:55:11.305Z,9.90
2023-01-17T22:00:16.923Z,12.45
2023-01-17T22:05:22.085Z,6.03
2023-01-17T22:10:27.254Z,7.68
2023-01-17T22:15:30.879Z,9.48
2023-01-17T22:20:39.895Z,5.63
2023-01-17T22:25:43.766Z,7.07
2023-01-17T22:30:47.573Z,6.45
2023-01-17T22:36:00.118Z,6.35
2023-01-17T22:41:08.014Z,6.45
2023-01-17T22:46:16.135Z,7.50
2023-01-17T22:51:24.117Z,6.53
2023-01-17T22:56:30.745Z,7.80
2023-01-17T23:01:34.597Z,5.85
2023-01-17T23:06:43.734Z,6.70
2023-01-17T23:11:52.848Z,8.57
2023-01-17T23:17:17.098Z,10.38
2023-01-17T23:22:26.888Z,11.07
2023-01-17T23:27:53.339Z,9.15
2023-01-17T23:33:00.835Z,6.90
2023-01-17T23:38:23.793Z,7.07
2023-01-17T23:43:27.419Z,8.02
2023-01-17T23:48:31.461Z,8.38
2023-01-17T23:53:37.855Z,8.70
2023-01-17T23:58:41.462Z,7.93
